Aérodrome :







RETROUVEZ-NOUS SUR...

 
LOGIN :

S'inscrire | Disclaimer

   EN    FR    IT 

 









Légende :    VFR   VFR Marginal   IFR   IFR Intensif   IFR Très Intensif
Visi : 
Plafond : 
>= 8 km
>= 3000ft
5 à 8 km
1000 à 3000 ft
1500m à 5 km
500 à 1000 ft
800 à 1500m
200 à 500 ft
< 800m
< 200 ft
Symboles :   Orages  Brouillard  Fortes neiges  Fortes précipitations  Vent > 20 kt






- Altitude de l'aérodrome : 76 ft
- Code IATA : PWM


KPWM - Portland International Jetport

DERNIER METAR :
  • 132251Z 20004KT 10SM BKN200 24/18 A2978 RMK AO2 LTG DSNT NW SLP084 T02390178 $

METARs EXPIRÉS :
  • 132151Z 16011KT 10SM FEW065 BKN200 24/18 A2976 RMK AO2 SLP077 T02440183 $
  • 132051Z 16007KT 10SM FEW065 BKN150 24/20 A2975 RMK AO2 RAE21 SLP075 P0001 60003 T02440200 58002 $

TAF KPWM
Valide du 13 à 21h jusqu'au 14 à 18h UTC


132046Z 1321/1418 18006KT P6SM SHRA BKN050
FM140100 VRB03KT 4SM BR FEW100
FM140700 36004KT 2SM BR SCT004 BKN009
FM141400 03005KT P6SM BKN015
FIR KZBW / Amérique du Nord



MET'MAP, la Météo Aéronautique d'un coup d'oeil ! - Copyright ORBIFLY Décembre 2007 - Disclaimer

ORBIFLY MET'MAP TEAM :

Programmation & Développement : Alexandra Zaïnal
Sur une idée originale de : Baudouin d'Aumeries
Assistance à la programmation : Marc-Olivier Méhu
Soutien technique & logistique : Manuel Goepfert

Contact : metmap@orbifly.com




SOURCES & CREDITS :

   NOAA